KLWS/LWS METAR and TAF weather

Enter ICAO airport designator
Station Type Date Time Source
KLWS METAR 2021/09/25 02:56 UTC NOAA

KLWS 250256Z 18006KT 10SM CLR 22/01 A2995 RMK AO2 SLP137 T02220011 56012


Station Type Date Time Source
KLWS Decoded METAR 2021/09/25 02:56 UTC NOAA

LEWISTON NEZ PERCE CO AIRPORT , ID, United States (KLWS) 46-22N 117-01W 438M
Sep 24, 2021 - 10:56 PM EDT / 2021.09.25 0256 UTC
Wind: from the S (180 degrees) at 7 MPH (6 KT):0
Visibility: 10 mile(s):0
Sky conditions: clear
Temperature: 72.0 F (22.2 C)
Dew Point: 34.0 F (1.1 C)
Relative Humidity: 24%
Pressure (altimeter): 29.95 in. Hg (1014 hPa)
Pressure tendency: 0.04 inches (1.2 hPa) lower than three hours ago
ob: KLWS 250256Z 18006KT 10SM CLR 22/01 A2995 RMK AO2 SLP137 T02220011 56012
cycle: 3

Station Type Date Time Source
KLWS TAF 2021/09/24 18:36 UTC NOAA

TAF KLWS 241733Z 2418/2518 VRB04KT P6SM SKC
FM250500 12005KT P6SM BKN250

Example: see airport list